Portada
METAR-TAF:

METAR-TAF

Aeropuertos :

Kristianstad, Suecia

latitud: 55-55N, longitud: 014-05E, altitud: 23 m

Observación

El informe se hizo hace 30 minutos, a las 16:20 UTC
Viento 4 kt del sureste
Temperatura 4°C
Humedad 93%
Presión 1001 hPa
Visibilidad 10 km o más
Escasas nubes a una altura de 2000 ft

METAR: ESMK 131620Z 13004KT 9999 FEW020 04/03 Q1001

Hora: 17:50 (16:50 UTC)

Pronóstico

El informe se hizo hace 2 horas y 49 minutos, a las 14:01 UTC
Pronóstico válido del 13 a las 15 UTC al 13 a las 21 UTC
Viento 6 kt del sur-sureste
Visibilidad 10 km o más
Nubes dispersas a una altura de 2000 ft

TAF: ESMK 131401Z 1315/1321 16006KT 9999 SCT020

Observaciones y pronósticos meteorológicos de más de 4000 aeropuertos (mensajes METAR y TAF).

Los puntos amarillos y rojos representan las estaciones disponibles.

Ponga el ratón en el punto deseado para ver el nombre de la estación.

Haga clic para ver las observaciones y los pronósticos meteorológicos.

Para cambiar el mapa : haga clic en los botones verdes con una cruz de color negro para hacer un zoom, en el botón verde con un guión para alejar o en las flechas verdes para mapas adyacentes.


METAR-TAF: